Time;durP1;ratioP1;P1;durP2;ratioP2;P2;SDS_P1;SDS_P2;PMS_P1;PMS_P2;Temp;Humidity;BMP_temperature;BMP_pressure;BME280_temperature;BME280_humidity;BME280_pressure;Samples;Min_cycle;Max_cycle;Signal;HPM_P1;HPM_P2
2021/10/25 00:00:41;;;;;;;4.77;3.53;;;;;;;;;;5099921;28;20047;-52
2021/10/25 00:03:07;;;;;;;6.30;4.20;;;;;;;;;;5109688;28;20472;-53
2021/10/25 00:05:32;;;;;;;5.43;3.40;;;;;;;;;;5111441;28;20024;-53
2021/10/25 00:07:58;;;;;;;3.85;3.47;;;;;;;;;;5110812;28;20023;-53
2021/10/25 00:10:23;;;;;;;6.53;3.95;;;;;;;;;;5111471;28;20118;-53
2021/10/25 00:12:49;;;;;;;5.47;3.65;;;;;;;;;;5111733;28;20031;-53
2021/10/25 00:15:15;;;;;;;4.45;3.88;;;;;;;;;;5111453;28;20169;-52
2021/10/25 00:17:40;;;;;;;4.37;3.70;;;;;;;;;;5111405;28;20477;-54
2021/10/25 00:20:06;;;;;;;5.13;3.70;;;;;;;;;;5111570;28;20614;-48
2021/10/25 00:22:32;;;;;;;4.72;3.78;;;;;;;;;;5111526;28;20043;-50
2021/10/25 00:24:57;;;;;;;4.65;3.65;;;;;;;;;;5115269;28;20020;-52
2021/10/25 00:27:23;;;;;;;5.55;3.55;;;;;;;;;;5115503;28;20574;-52
2021/10/25 00:29:49;;;;;;;5.10;3.67;;;;;;;;;;5115557;28;20488;-53
2021/10/25 00:32:14;;;;;;;5.00;3.63;;;;;;;;;;5115183;28;20015;-52
2021/10/25 00:34:40;;;;;;;5.00;3.77;;;;;;;;;;5115429;28;20107;-52
2021/10/25 00:37:05;;;;;;;4.47;3.83;;;;;;;;;;5115348;28;20399;-53
2021/10/25 00:39:31;;;;;;;5.50;3.58;;;;;;;;;;5114987;28;20244;-52
2021/10/25 00:41:57;;;;;;;6.82;3.70;;;;;;;;;;5115164;28;20031;-54
2021/10/25 00:44:23;;;;;;;6.20;4.30;;;;;;;;;;5114902;28;20031;-53
2021/10/25 00:46:48;;;;;;;5.57;3.93;;;;;;;;;;5114976;28;20145;-52
2021/10/25 00:49:13;;;;;;;6.05;3.70;;;;;;;;;;5115359;28;20023;-53
2021/10/25 00:51:39;;;;;;;5.07;3.83;;;;;;;;;;5115278;28;20513;-53
2021/10/25 00:54:04;;;;;;;4.60;3.75;;;;;;;;;;5114634;28;20434;-53
2021/10/25 00:56:32;;;;;;;4.97;4.07;;;;;;;;;;5114804;28;20019;-52
2021/10/25 00:58:57;;;;;;;4.68;3.92;;;;;;;;;;5114981;28;20020;-47
2021/10/25 01:01:23;;;;;;;4.32;3.45;;;;;;;;;;5114650;28;20107;-48
2021/10/25 01:03:48;;;;;;;5.10;4.03;;;;;;;;;;5118231;27;20023;-48
2021/10/25 01:06:14;;;;;;;6.35;4.03;;;;;;;;;;5114416;28;20058;-48
2021/10/25 01:08:40;;;;;;;5.50;3.77;;;;;;;;;;5114220;28;20027;-48
2021/10/25 01:11:07;;;;;;;4.65;4.05;;;;;;;;;;5114815;28;20350;-48
2021/10/25 01:13:32;;;;;;;5.10;4.07;;;;;;;;;;5114686;28;20032;-47
2021/10/25 01:15:57;;;;;;;5.53;4.03;;;;;;;;;;5114319;28;20052;-48
2021/10/25 01:18:23;;;;;;;5.93;3.95;;;;;;;;;;5114295;28;20054;-49
2021/10/25 01:20:48;;;;;;;4.32;3.90;;;;;;;;;;5114365;28;20415;-49
2021/10/25 01:23:14;;;;;;;4.75;3.78;;;;;;;;;;5114283;28;20034;-48
2021/10/25 01:25:40;;;;;;;6.63;3.85;;;;;;;;;;5114303;28;20089;-48
2021/10/25 01:28:05;;;;;;;4.65;4.03;;;;;;;;;;5114522;28;20027;-48
2021/10/25 01:30:31;;;;;;;5.17;3.73;;;;;;;;;;5114177;28;20027;-48
2021/10/25 01:32:56;;;;;;;5.72;4.30;;;;;;;;;;5114073;28;20032;-49
2021/10/25 01:35:22;;;;;;;6.47;4.23;;;;;;;;;;5113730;28;20111;-49
2021/10/25 01:37:47;;;;;;;4.93;3.53;;;;;;;;;;5114385;28;20019;-50
2021/10/25 01:40:14;;;;;;;4.30;3.65;;;;;;;;;;5113928;28;20034;-53
2021/10/25 01:42:39;;;;;;;4.70;3.85;;;;;;;;;;5112615;28;20115;-52
2021/10/25 01:45:05;;;;;;;6.30;3.95;;;;;;;;;;5114263;28;20104;-52
2021/10/25 01:47:30;;;;;;;4.60;3.67;;;;;;;;;;5113661;27;20084;-51
2021/10/25 01:49:56;;;;;;;4.87;3.53;;;;;;;;;;5113553;28;20023;-48
2021/10/25 01:52:21;;;;;;;4.63;4.07;;;;;;;;;;5113423;28;20031;-52
2021/10/25 01:54:47;;;;;;;5.65;4.03;;;;;;;;;;5113866;28;20083;-48
2021/10/25 01:57:12;;;;;;;5.55;4.05;;;;;;;;;;5112532;28;20118;-50
2021/10/25 01:59:39;;;;;;;4.95;3.92;;;;;;;;;;5114317;28;20392;-51
2021/10/25 02:02:04;;;;;;;5.88;4.00;;;;;;;;;;5113084;28;20019;-48
2021/10/25 02:04:31;;;;;;;6.65;4.03;;;;;;;;;;5113193;28;20448;-52
2021/10/25 02:06:57;;;;;;;5.47;3.95;;;;;;;;;;5112217;28;20019;-52
2021/10/25 02:09:22;;;;;;;5.57;3.95;;;;;;;;;;5112333;28;20129;-50
2021/10/25 02:11:48;;;;;;;5.47;3.83;;;;;;;;;;5113175;28;20480;-49
2021/10/25 02:14:14;;;;;;;5.07;3.80;;;;;;;;;;5111452;28;20076;-49
2021/10/25 02:16:39;;;;;;;4.85;3.78;;;;;;;;;;5113338;28;20054;-47
2021/10/25 02:19:05;;;;;;;6.15;3.90;;;;;;;;;;5112746;28;20027;-49
2021/10/25 02:21:30;;;;;;;4.57;3.67;;;;;;;;;;5112908;28;20034;-50
2021/10/25 02:23:56;;;;;;;6.07;4.32;;;;;;;;;;5112927;27;20064;-48
2021/10/25 02:26:21;;;;;;;3.67;3.30;;;;;;;;;;5113362;28;20041;-48
2021/10/25 02:28:46;;;;;;;3.60;3.28;;;;;;;;;;5113388;28;20093;-48
2021/10/25 02:31:12;;;;;;;4.55;3.90;;;;;;;;;;5113329;28;20049;-48
2021/10/25 02:33:37;;;;;;;6.38;3.78;;;;;;;;;;5112705;28;20518;-49
2021/10/25 02:36:05;;;;;;;6.45;4.15;;;;;;;;;;5113224;28;20026;-49
2021/10/25 02:38:31;;;;;;;6.32;3.63;;;;;;;;;;5113091;28;20024;-49
2021/10/25 02:40:56;;;;;;;4.75;3.80;;;;;;;;;;5113276;27;20016;-51
2021/10/25 02:43:21;;;;;;;7.07;4.47;;;;;;;;;;5111270;28;20051;-49
2021/10/25 02:45:47;;;;;;;5.70;3.93;;;;;;;;;;5112587;28;20065;-51
2021/10/25 02:48:13;;;;;;;7.55;4.00;;;;;;;;;;5111514;28;20020;-51
2021/10/25 02:50:39;;;;;;;5.63;4.20;;;;;;;;;;5113070;28;20084;-49
2021/10/25 02:53:07;;;;;;;5.88;4.05;;;;;;;;;;5112986;28;20557;-47
2021/10/25 02:55:33;;;;;;;6.60;4.43;;;;;;;;;;5112831;28;20130;-50
2021/10/25 02:57:58;;;;;;;4.60;3.97;;;;;;;;;;5124557;27;20043;-50
2021/10/25 03:00:24;;;;;;;4.35;3.78;;;;;;;;;;5092503;28;20032;-48
2021/10/25 03:02:49;;;;;;;6.15;3.75;;;;;;;;;;5107490;28;20024;-50
2021/10/25 03:05:15;;;;;;;4.15;3.65;;;;;;;;;;5111877;28;20024;-51
2021/10/25 03:07:41;;;;;;;4.57;3.80;;;;;;;;;;5112125;28;20058;-50
2021/10/25 03:10:07;;;;;;;5.77;4.03;;;;;;;;;;5112570;28;20476;-51
2021/10/25 03:12:33;;;;;;;4.43;4.03;;;;;;;;;;5112181;28;20034;-47
2021/10/25 03:14:58;;;;;;;5.95;4.15;;;;;;;;;;5111670;28;20049;-48
2021/10/25 03:17:24;;;;;;;5.20;3.90;;;;;;;;;;5112143;28;20477;-48
2021/10/25 03:19:50;;;;;;;4.77;3.63;;;;;;;;;;5111936;28;20555;-48
2021/10/25 03:22:16;;;;;;;4.03;3.63;;;;;;;;;;5112153;28;20099;-49
2021/10/25 03:24:42;;;;;;;6.13;3.95;;;;;;;;;;5112201;28;20068;-50
2021/10/25 03:27:07;;;;;;;6.40;3.92;;;;;;;;;;5111768;28;20059;-50
2021/10/25 03:29:33;;;;;;;5.72;3.75;;;;;;;;;;5112305;28;20035;-49
2021/10/25 03:31:59;;;;;;;4.87;3.63;;;;;;;;;;5112029;28;20038;-48
2021/10/25 03:34:24;;;;;;;6.10;4.05;;;;;;;;;;5111157;28;20028;-48
2021/10/25 03:36:50;;;;;;;4.47;3.63;;;;;;;;;;5110847;28;20442;-51
2021/10/25 03:39:19;;;;;;;6.68;3.92;;;;;;;;;;5111991;28;20106;-48
2021/10/25 03:41:47;;;;;;;6.10;3.83;;;;;;;;;;5112091;28;20015;-49
2021/10/25 03:44:34;;;;;;;4.57;3.53;;;;;;;;;;5111872;28;20446;-50
2021/10/25 03:47:07;;;;;;;5.45;3.95;;;;;;;;;;5111879;28;20047;-50
2021/10/25 03:49:54;;;;;;;3.90;3.50;;;;;;;;;;5111858;28;20042;-48
2021/10/25 03:55:01;;;;;;;4.28;3.63;;;;;;;;;;5091536;28;20036;-49
2021/10/25 04:03:13;;;;;;;5.50;4.00;;;;;;;;;;5091829;28;20059;-49
2021/10/25 04:27:46;;;;;;;4.82;3.75;;;;;;;;;;5068725;28;20094;-47
2021/10/25 04:30:12;;;;;;;5.25;3.60;;;;;;;;;;5068719;28;20028;-47
2021/10/25 04:32:37;;;;;;;5.03;4.07;;;;;;;;;;5068731;28;20428;-47
2021/10/25 04:35:03;;;;;;;4.13;3.50;;;;;;;;;;5068592;28;20029;-49
2021/10/25 04:37:29;;;;;;;4.00;3.60;;;;;;;;;;5051978;28;20458;-51
2021/10/25 04:39:54;;;;;;;3.70;3.37;;;;;;;;;;5068482;28;20036;-47
2021/10/25 04:42:20;;;;;;;6.55;3.72;;;;;;;;;;5068696;28;20530;-50
2021/10/25 04:44:46;;;;;;;4.60;3.85;;;;;;;;;;5068586;28;20025;-49
2021/10/25 04:47:12;;;;;;;4.47;3.93;;;;;;;;;;5068383;28;20049;-47
2021/10/25 04:49:37;;;;;;;4.63;3.53;;;;;;;;;;5068489;28;20054;-49
2021/10/25 04:52:03;;;;;;;4.00;3.60;;;;;;;;;;5085198;28;20040;-48
2021/10/25 04:54:31;;;;;;;5.60;4.43;;;;;;;;;;5110023;28;20484;-48
2021/10/25 04:56:56;;;;;;;4.65;4.00;;;;;;;;;;5111363;28;20059;-51
2021/10/25 04:59:22;;;;;;;4.82;4.03;;;;;;;;;;5111259;28;20104;-49
2021/10/25 05:01:47;;;;;;;5.40;4.20;;;;;;;;;;5109941;28;20028;-52
2021/10/25 05:04:12;;;;;;;6.15;4.03;;;;;;;;;;5111521;28;20030;-51
2021/10/25 05:06:38;;;;;;;5.85;4.32;;;;;;;;;;5109998;28;20118;-51
2021/10/25 05:09:03;;;;;;;4.15;3.75;;;;;;;;;;5111257;28;20032;-49
2021/10/25 05:11:28;;;;;;;3.97;3.57;;;;;;;;;;5120055;28;20050;-48
2021/10/25 05:13:54;;;;;;;5.05;3.80;;;;;;;;;;5114474;28;20023;-47
2021/10/25 05:16:19;;;;;;;5.57;4.45;;;;;;;;;;5130462;27;20034;-51
2021/10/25 05:18:44;;;;;;;4.22;3.75;;;;;;;;;;5114177;28;20753;-47
2021/10/25 05:21:10;;;;;;;4.37;3.80;;;;;;;;;;5114700;28;20024;-47
2021/10/25 05:23:35;;;;;;;4.50;3.60;;;;;;;;;;5114506;28;20051;-47
2021/10/25 05:26:00;;;;;;;4.57;4.00;;;;;;;;;;5114718;28;20027;-48
2021/10/25 05:28:26;;;;;;;5.85;4.72;;;;;;;;;;5114248;28;20031;-49
2021/10/25 05:30:52;;;;;;;4.93;3.92;;;;;;;;;;5114593;28;20031;-49
2021/10/25 05:33:17;;;;;;;5.18;4.05;;;;;;;;;;5114263;28;20031;-48
2021/10/25 05:35:42;;;;;;;4.72;4.10;;;;;;;;;;5114344;28;20023;-48
2021/10/25 05:38:08;;;;;;;4.13;3.45;;;;;;;;;;5113976;28;20485;-51
2021/10/25 05:40:33;;;;;;;5.63;4.70;;;;;;;;;;5114404;28;20046;-48
2021/10/25 05:43:01;;;;;;;4.53;4.03;;;;;;;;;;5114440;28;20031;-48
2021/10/25 05:45:27;;;;;;;5.55;4.28;;;;;;;;;;5113612;28;20116;-47
2021/10/25 05:47:52;;;;;;;5.25;3.80;;;;;;;;;;5113784;28;20043;-47
2021/10/25 05:50:17;;;;;;;5.13;4.20;;;;;;;;;;5114135;28;20456;-46
2021/10/25 05:52:43;;;;;;;7.07;4.07;;;;;;;;;;5114176;28;20023;-50
2021/10/25 05:55:08;;;;;;;5.70;4.40;;;;;;;;;;5113623;27;20027;-47
2021/10/25 05:57:34;;;;;;;5.30;4.30;;;;;;;;;;5114176;28;20016;-47
2021/10/25 05:59:59;;;;;;;4.50;4.00;;;;;;;;;;5113634;28;20088;-47
2021/10/25 06:02:33;;;;;;;4.82;3.85;;;;;;;;;;5114057;28;20026;-47
2021/10/25 06:04:59;;;;;;;5.50;4.32;;;;;;;;;;5113582;28;20027;-47
2021/10/25 06:07:24;;;;;;;5.63;4.53;;;;;;;;;;5114043;28;20031;-48
2021/10/25 06:09:50;;;;;;;4.10;3.72;;;;;;;;;;5113461;28;20039;-48
2021/10/25 06:12:19;;;;;;;4.78;4.03;;;;;;;;;;5113700;28;20020;-48
2021/10/25 06:14:46;;;;;;;5.70;4.10;;;;;;;;;;5113170;28;20028;-50
2021/10/25 06:17:36;;;;;;;4.45;4.03;;;;;;;;;;5112841;28;20016;-47
2021/10/25 06:20:02;;;;;;;5.03;4.05;;;;;;;;;;5113257;27;20023;-48
2021/10/25 06:22:30;;;;;;;3.92;3.63;;;;;;;;;;5113306;28;20032;-47
2021/10/25 06:24:55;;;;;;;4.45;4.00;;;;;;;;;;5112608;28;20035;-49
2021/10/25 06:27:21;;;;;;;5.13;4.03;;;;;;;;;;5113130;27;20601;-48
2021/10/25 06:29:46;;;;;;;4.65;4.03;;;;;;;;;;5111241;28;20023;-47
2021/10/25 06:32:12;;;;;;;4.80;4.07;;;;;;;;;;5111021;28;20569;-47
2021/10/25 06:34:40;;;;;;;4.50;4.10;;;;;;;;;;5111205;28;20408;-48
2021/10/25 06:37:05;;;;;;;5.32;4.00;;;;;;;;;;5111109;28;20018;-47
2021/10/25 06:39:39;;;;;;;4.40;3.97;;;;;;;;;;5111763;28;20327;-50
2021/10/25 06:42:05;;;;;;;4.28;3.88;;;;;;;;;;5106047;28;20027;-47
2021/10/25 06:44:33;;;;;;;4.18;3.65;;;;;;;;;;5101018;28;20058;-47
2021/10/25 06:46:59;;;;;;;4.72;4.28;;;;;;;;;;5091306;28;20515;-47
2021/10/25 06:49:26;;;;;;;5.75;4.40;;;;;;;;;;5102403;28;20031;-47
2021/10/25 06:51:51;;;;;;;4.97;4.47;;;;;;;;;;5101553;28;20369;-49
2021/10/25 06:54:16;;;;;;;6.33;4.03;;;;;;;;;;5087117;28;20027;-48
2021/10/25 06:56:42;;;;;;;3.92;3.55;;;;;;;;;;5100045;28;20503;-48
2021/10/25 06:59:07;;;;;;;4.10;3.70;;;;;;;;;;5099800;28;20411;-49
2021/10/25 07:01:32;;;;;;;5.70;3.88;;;;;;;;;;5101143;28;20023;-47
2021/10/25 07:03:58;;;;;;;4.72;3.88;;;;;;;;;;5085156;28;20016;-49
2021/10/25 07:06:23;;;;;;;3.80;3.50;;;;;;;;;;5100946;28;20023;-48
2021/10/25 07:08:51;;;;;;;4.43;4.03;;;;;;;;;;5102886;28;20020;-47
2021/10/25 07:11:17;;;;;;;4.13;3.70;;;;;;;;;;5100915;28;20023;-47
2021/10/25 07:13:46;;;;;;;5.32;3.92;;;;;;;;;;5092404;28;20022;-48
2021/10/25 07:16:18;;;;;;;4.60;3.95;;;;;;;;;;5097437;28;20036;-48
2021/10/25 08:09:56;;;;;;;6.40;3.70;;;;;;;;;;5111737;28;20367;-47
2021/10/25 08:12:27;;;;;;;4.72;3.80;;;;;;;;;;5109487;28;20111;-47
2021/10/25 08:15:03;;;;;;;5.80;3.58;;;;;;;;;;5075535;28;20032;-47
2021/10/25 08:18:22;;;;;;;4.70;3.78;;;;;;;;;;5091162;28;20036;-50
2021/10/25 08:20:17;;;;;;;4.75;3.85;;;;;;;;;;5088249;28;20368;-48
2021/10/25 08:22:42;;;;;;;3.90;3.28;;;;;;;;;;5086815;28;20027;-48
2021/10/25 08:25:08;;;;;;;5.03;3.50;;;;;;;;;;5102024;28;20106;-48
2021/10/25 08:27:35;;;;;;;4.45;3.70;;;;;;;;;;5111140;28;20519;-48
2021/10/25 08:30:00;;;;;;;5.07;3.65;;;;;;;;;;5110114;28;20024;-47
2021/10/25 08:40:30;;;;;;;4.70;3.40;;;;;;;;;;5111652;28;20030;-48
2021/10/25 08:42:56;;;;;;;5.13;3.53;;;;;;;;;;5104072;28;20038;-47
2021/10/25 08:45:29;;;;;;;4.47;3.43;;;;;;;;;;5102207;28;20027;-49
2021/10/25 08:47:56;;;;;;;4.18;3.78;;;;;;;;;;5115015;28;20024;-47
2021/10/25 08:50:22;;;;;;;3.67;3.30;;;;;;;;;;5115207;28;20096;-48
2021/10/25 08:52:48;;;;;;;4.18;3.47;;;;;;;;;;5108353;28;20633;-49
2021/10/25 08:55:17;;;;;;;4.33;3.53;;;;;;;;;;5104013;28;20024;-50
2021/10/25 08:57:42;;;;;;;5.07;3.42;;;;;;;;;;5104578;28;20106;-48
2021/10/25 09:00:09;;;;;;;5.00;3.40;;;;;;;;;;5111853;28;20103;-50
2021/10/25 09:02:35;;;;;;;4.20;3.47;;;;;;;;;;5107377;28;20023;-48
2021/10/25 09:05:11;;;;;;;4.67;3.70;;;;;;;;;;5100217;28;20023;-48
2021/10/25 09:07:48;;;;;;;4.50;3.42;;;;;;;;;;5114697;28;20438;-49
2021/10/25 09:10:19;;;;;;;4.55;3.58;;;;;;;;;;5115033;28;20443;-50
2021/10/25 09:12:51;;;;;;;3.47;3.03;;;;;;;;;;5107486;28;20019;-49
2021/10/25 09:15:16;;;;;;;4.32;3.35;;;;;;;;;;5104369;28;20081;-48
2021/10/25 09:17:42;;;;;;;3.87;3.03;;;;;;;;;;5115257;28;20388;-51
2021/10/25 09:20:08;;;;;;;3.77;3.33;;;;;;;;;;5114507;28;20019;-49
2021/10/25 09:22:33;;;;;;;5.10;3.70;;;;;;;;;;5112426;28;20482;-51
2021/10/25 09:24:59;;;;;;;4.05;3.20;;;;;;;;;;5097707;28;20024;-49
2021/10/25 09:27:28;;;;;;;4.70;3.60;;;;;;;;;;5114645;28;20480;-49
2021/10/25 09:29:57;;;;;;;4.10;3.60;;;;;;;;;;5113567;28;20081;-48
2021/10/25 09:32:29;;;;;;;5.93;4.35;;;;;;;;;;5112660;28;20035;-50
2021/10/25 09:34:57;;;;;;;5.40;4.05;;;;;;;;;;5098295;28;20477;-49
2021/10/25 09:37:28;;;;;;;5.13;3.80;;;;;;;;;;5113801;28;20476;-48
2021/10/25 09:40:00;;;;;;;3.70;3.38;;;;;;;;;;5114393;28;20058;-48
2021/10/25 09:50:56;;;;;;;4.82;4.03;;;;;;;;;;5098394;28;20034;-48
2021/10/25 09:53:29;;;;;;;4.15;3.45;;;;;;;;;;5096532;28;20028;-50
2021/10/25 09:55:54;;;;;;;3.47;3.17;;;;;;;;;;5104970;28;20023;-48
2021/10/25 09:58:23;;;;;;;4.20;3.70;;;;;;;;;;5113790;28;20038;-52
2021/10/25 10:00:48;;;;;;;4.55;3.40;;;;;;;;;;5109202;28;20537;-49
2021/10/25 10:03:15;;;;;;;4.10;3.40;;;;;;;;;;5096407;28;20962;-48
2021/10/25 10:05:41;;;;;;;4.35;3.55;;;;;;;;;;5106011;28;20073;-49
2021/10/25 10:08:08;;;;;;;4.22;3.47;;;;;;;;;;5094931;28;20035;-48
2021/10/25 10:10:34;;;;;;;4.80;3.60;;;;;;;;;;5098319;28;20407;-48
2021/10/25 10:13:00;;;;;;;3.47;3.00;;;;;;;;;;5093742;28;20036;-49
2021/10/25 10:15:27;;;;;;;6.22;4.05;;;;;;;;;;5103181;28;20496;-49
2021/10/25 10:18:00;;;;;;;3.30;2.97;;;;;;;;;;5113539;28;20035;-47
2021/10/25 10:20:25;;;;;;;3.65;3.17;;;;;;;;;;5096399;28;20024;-47
2021/10/25 10:22:52;;;;;;;4.03;3.37;;;;;;;;;;5089794;28;20027;-49
2021/10/25 10:25:27;;;;;;;4.65;3.55;;;;;;;;;;5105387;28;20019;-50
2021/10/25 10:28:03;;;;;;;4.20;3.42;;;;;;;;;;5113102;28;20527;-49
2021/10/25 10:30:30;;;;;;;4.68;3.90;;;;;;;;;;5111574;28;20122;-47
2021/10/25 10:33:00;;;;;;;3.85;3.05;;;;;;;;;;5104559;28;20491;-47
2021/10/25 10:35:25;;;;;;;3.58;3.28;;;;;;;;;;5102654;28;20057;-52
2021/10/25 10:37:59;;;;;;;3.17;2.87;;;;;;;;;;5113713;28;20027;-51
2021/10/25 10:40:34;;;;;;;4.22;3.75;;;;;;;;;;5113102;28;20395;-49
2021/10/25 10:43:00;;;;;;;4.00;3.30;;;;;;;;;;5104436;28;20070;-52
2021/10/25 10:45:25;;;;;;;3.77;2.90;;;;;;;;;;5104456;28;20058;-48
2021/10/25 10:47:55;;;;;;;3.53;3.22;;;;;;;;;;5111947;28;20035;-50
2021/10/25 10:50:29;;;;;;;3.45;3.13;;;;;;;;;;5113383;28;20053;-50
2021/10/25 10:52:59;;;;;;;3.58;3.25;;;;;;;;;;5108182;28;20057;-48
2021/10/25 10:55:32;;;;;;;4.60;3.97;;;;;;;;;;5106030;28;20028;-47
2021/10/25 11:00:35;;;;;;;3.70;3.22;;;;;;;;;;5112821;28;20089;-50
2021/10/25 11:03:19;;;;;;;3.97;3.58;;;;;;;;;;5105770;28;20020;-51
2021/10/25 11:06:01;;;;;;;4.03;3.33;;;;;;;;;;5089540;28;20024;-49
2021/10/25 11:08:31;;;;;;;3.63;3.25;;;;;;;;;;5094942;28;20036;-50
2021/10/25 11:10:58;;;;;;;3.60;3.10;;;;;;;;;;5109896;28;20392;-50
2021/10/25 11:13:26;;;;;;;;;;;;;;;;;;5102726;28;20023;-52
2021/10/25 11:15:53;;;;;;;3.90;3.30;;;;;;;;;;5106726;28;19908;-48
2021/10/25 11:18:29;;;;;;;3.25;2.95;;;;;;;;;;5111706;28;20462;-47
2021/10/25 11:21:12;;;;;;;3.85;3.13;;;;;;;;;;5103477;28;20065;-51
2021/10/25 11:23:55;;;;;;;5.85;3.03;;;;;;;;;;5090318;28;20076;-48
2021/10/25 11:26:24;;;;;;;4.03;3.33;;;;;;;;;;5099256;28;20028;-48
2021/10/25 11:28:54;;;;;;;3.55;3.20;;;;;;;;;;5092239;28;20030;-48
2021/10/25 11:31:19;;;;;;;3.88;2.92;;;;;;;;;;5083797;28;20039;-53
2021/10/25 11:33:46;;;;;;;3.20;2.90;;;;;;;;;;5098324;28;20027;-51
2021/10/25 11:36:11;;;;;;;4.18;3.33;;;;;;;;;;5105962;28;20023;-48
2021/10/25 11:38:40;;;;;;;3.78;3.17;;;;;;;;;;5112105;28;20103;-50
2021/10/25 11:41:05;;;;;;;3.47;3.17;;;;;;;;;;5110307;28;20055;-48
2021/10/25 11:43:31;;;;;;;4.30;3.33;;;;;;;;;;5094877;28;20070;-50
2021/10/25 11:45:56;;;;;;;3.35;3.00;;;;;;;;;;5101758;28;20072;-49
2021/10/25 11:48:31;;;;;;;4.10;3.05;;;;;;;;;;5110115;28;20058;-48
2021/10/25 11:51:00;;;;;;;4.07;3.40;;;;;;;;;;5107251;28;20023;-51
2021/10/25 11:53:29;;;;;;;3.58;2.80;;;;;;;;;;5092300;28;20024;-47
2021/10/25 11:55:55;;;;;;;3.22;2.92;;;;;;;;;;5111353;28;20015;-49
2021/10/25 11:58:22;;;;;;;3.50;3.07;;;;;;;;;;5111475;28;20107;-47
2021/10/25 12:00:51;;;;;;;3.72;3.25;;;;;;;;;;5108083;28;20023;-48
2021/10/25 12:03:19;;;;;;;3.78;2.60;;;;;;;;;;5091506;28;20024;-48
2021/10/25 12:05:44;;;;;;;3.65;3.33;;;;;;;;;;5091743;28;20484;-48
2021/10/25 12:08:10;;;;;;;3.10;2.90;;;;;;;;;;5107642;28;20089;-50
2021/10/25 12:10:37;;;;;;;3.50;3.20;;;;;;;;;;5111053;28;20084;-49
2021/10/25 12:13:04;;;;;;;3.50;3.03;;;;;;;;;;5111459;28;20019;-48
2021/10/25 12:15:30;;;;;;;3.92;3.15;;;;;;;;;;5111351;28;20114;-49
2021/10/25 12:18:00;;;;;;;4.65;3.25;;;;;;;;;;5111207;28;20015;-52
2021/10/25 12:20:27;;;;;;;3.20;2.80;;;;;;;;;;5112349;28;20028;-48
2021/10/25 12:22:56;;;;;;;3.58;2.90;;;;;;;;;;5115218;28;20492;-48
2021/10/25 12:25:21;;;;;;;3.10;2.80;;;;;;;;;;5131487;27;20123;-49
2021/10/25 12:27:47;;;;;;;3.30;2.90;;;;;;;;;;5115353;28;20111;-49
2021/10/25 12:30:17;;;;;;;3.30;2.90;;;;;;;;;;5115665;28;20035;-48
2021/10/25 12:33:11;;;;;;;3.08;2.78;;;;;;;;;;5115883;28;20102;-47
2021/10/25 12:35:37;;;;;;;3.40;3.10;;;;;;;;;;5092714;28;20071;-49
2021/10/25 12:38:06;;;;;;;3.17;2.87;;;;;;;;;;5075630;28;20056;-51
2021/10/25 12:40:39;;;;;;;3.72;3.17;;;;;;;;;;5086904;28;20196;-48
2021/10/25 12:43:05;;;;;;;3.55;3.15;;;;;;;;;;5092664;28;20032;-51
2021/10/25 12:45:41;;;;;;;3.07;2.67;;;;;;;;;;5090675;28;20065;-52
2021/10/25 12:48:07;;;;;;;3.47;2.88;;;;;;;;;;5090778;28;20090;-53
2021/10/25 12:50:34;;;;;;;3.85;3.35;;;;;;;;;;5077813;28;20124;-48
2021/10/25 12:53:03;;;;;;;3.40;3.10;;;;;;;;;;5055285;28;20035;-48
2021/10/25 12:55:28;;;;;;;3.40;3.10;;;;;;;;;;5072082;28;20028;-46
2021/10/25 12:57:55;;;;;;;3.27;2.80;;;;;;;;;;5072901;28;20114;-47
2021/10/25 13:00:20;;;;;;;2.75;2.47;;;;;;;;;;5088603;28;20070;-47
2021/10/25 13:02:48;;;;;;;3.10;2.80;;;;;;;;;;5092238;28;20620;-47
2021/10/25 13:05:15;;;;;;;3.10;2.80;;;;;;;;;;5092152;28;20397;-47
2021/10/25 13:08:03;;;;;;;3.47;2.80;;;;;;;;;;5091205;28;20346;-47
2021/10/25 13:10:33;;;;;;;3.88;3.10;;;;;;;;;;5084070;28;20036;-48
2021/10/25 13:12:59;;;;;;;3.75;3.30;;;;;;;;;;5112089;28;20040;-48
2021/10/25 13:15:25;;;;;;;;;;;;;;;;;;5115231;28;20020;-47
2021/10/25 13:17:54;;;;;;;3.20;2.90;;;;;;;;;;5108424;28;19915;-49
2021/10/25 13:20:21;;;;;;;3.15;2.85;;;;;;;;;;5113299;28;20031;-47
2021/10/25 13:22:48;;;;;;;3.88;2.85;;;;;;;;;;5110574;28;20520;-47
2021/10/25 13:25:14;;;;;;;3.65;2.85;;;;;;;;;;5095197;28;20031;-50
2021/10/25 13:27:40;;;;;;;3.37;2.80;;;;;;;;;;5113036;28;20109;-49
2021/10/25 13:30:06;;;;;;;3.47;3.03;;;;;;;;;;5112198;28;20031;-49
2021/10/25 13:32:31;;;;;;;3.27;2.97;;;;;;;;;;5111565;28;20624;-48
2021/10/25 13:34:57;;;;;;;3.33;2.87;;;;;;;;;;5111909;28;20035;-50
2021/10/25 13:37:23;;;;;;;3.07;2.67;;;;;;;;;;5112740;28;20133;-50
2021/10/25 13:39:48;;;;;;;3.50;2.73;;;;;;;;;;5111935;28;20479;-51
2021/10/25 13:42:15;;;;;;;3.07;2.83;;;;;;;;;;5112504;28;20077;-52
2021/10/25 13:44:40;;;;;;;2.90;2.70;;;;;;;;;;5109565;28;20033;-52
2021/10/25 13:47:06;;;;;;;2.60;2.40;;;;;;;;;;5114033;28;20058;-48
2021/10/25 13:49:31;;;;;;;2.78;2.40;;;;;;;;;;5114143;28;20027;-51
2021/10/25 13:51:57;;;;;;;2.90;2.70;;;;;;;;;;5112819;28;20028;-50
2021/10/25 13:54:22;;;;;;;3.30;2.97;;;;;;;;;;5109727;27;20076;-47
2021/10/25 13:56:48;;;;;;;2.97;2.67;;;;;;;;;;5099975;28;20035;-52
2021/10/25 13:59:13;;;;;;;2.92;2.63;;;;;;;;;;5093650;28;20469;-52
2021/10/25 14:01:39;;;;;;;3.00;2.70;;;;;;;;;;5112457;28;20055;-48
2021/10/25 14:04:05;;;;;;;2.93;2.63;;;;;;;;;;5110251;28;20019;-48
2021/10/25 14:06:32;;;;;;;4.17;2.93;;;;;;;;;;5113612;28;20095;-51
2021/10/25 14:08:58;;;;;;;2.75;2.40;;;;;;;;;;5112999;28;20045;-51
2021/10/25 14:11:26;;;;;;;3.17;2.80;;;;;;;;;;5109151;28;20062;-51
2021/10/25 14:14:10;;;;;;;2.78;2.50;;;;;;;;;;5100419;28;20065;-49
2021/10/25 14:19:02;;;;;;;3.20;2.87;;;;;;;;;;5113496;28;20022;-48
2021/10/25 14:21:33;;;;;;;;;;;;;;;;;;5113741;28;20510;-51
2021/10/25 14:23:59;;;;;;;3.33;2.85;;;;;;;;;;5098415;28;20299;-47
2021/10/25 14:26:25;;;;;;;2.93;2.60;;;;;;;;;;5108020;28;20080;-51
2021/10/25 14:28:50;;;;;;;3.10;2.75;;;;;;;;;;5098360;28;20043;-51
2021/10/25 14:31:15;;;;;;;3.10;2.72;;;;;;;;;;5107464;27;20027;-49
2021/10/25 14:33:41;;;;;;;3.50;3.20;;;;;;;;;;5099386;27;20030;-51
2021/10/25 14:36:07;;;;;;;4.80;2.57;;;;;;;;;;5098937;28;20024;-50
2021/10/25 14:41:30;;;;;;;3.97;2.90;;;;;;;;;;5113490;28;20096;-50
2021/10/25 14:44:58;;;;;;;2.78;2.58;;;;;;;;;;5098603;28;20028;-51
2021/10/25 14:57:21;;;;;;;3.30;3.00;;;;;;;;;;5112653;28;20333;-48
2021/10/25 14:59:47;;;;;;;4.30;2.60;;;;;;;;;;5113581;28;20385;-48
2021/10/25 15:02:12;;;;;;;2.83;2.53;;;;;;;;;;5112964;28;20027;-47
2021/10/25 15:04:38;;;;;;;2.60;2.40;;;;;;;;;;5112664;28;20035;-47
2021/10/25 15:07:03;;;;;;;3.20;2.25;;;;;;;;;;5105737;28;20019;-47
2021/10/25 15:09:29;;;;;;;4.30;3.10;;;;;;;;;;5092273;28;20031;-48
2021/10/25 15:11:54;;;;;;;2.70;2.50;;;;;;;;;;5108680;28;20027;-48
2021/10/25 15:14:20;;;;;;;2.20;2.00;;;;;;;;;;5112429;28;20080;-47
2021/10/25 15:16:47;;;;;;;2.63;2.43;;;;;;;;;;5112677;28;20020;-47
2021/10/25 15:19:13;;;;;;;3.38;2.60;;;;;;;;;;5112470;28;20247;-48
2021/10/25 15:21:39;;;;;;;3.30;2.70;;;;;;;;;;5112494;28;20034;-50
2021/10/25 15:24:05;;;;;;;2.78;2.58;;;;;;;;;;5096177;28;20154;-53
2021/10/25 15:26:31;;;;;;;3.20;2.50;;;;;;;;;;5111230;28;20036;-47
2021/10/25 15:28:57;;;;;;;2.87;2.60;;;;;;;;;;5111907;28;20028;-47
2021/10/25 15:31:23;;;;;;;3.27;2.40;;;;;;;;;;5112283;28;20697;-47
2021/10/25 15:33:48;;;;;;;3.63;2.63;;;;;;;;;;5108909;28;20042;-47
2021/10/25 15:36:14;;;;;;;3.60;2.87;;;;;;;;;;5111943;28;20098;-47
2021/10/25 15:38:39;;;;;;;3.30;2.50;;;;;;;;;;5095348;28;20016;-47
2021/10/25 15:41:08;;;;;;;3.47;2.77;;;;;;;;;;5091759;28;20111;-47
2021/10/25 15:43:34;;;;;;;3.13;2.80;;;;;;;;;;5091706;28;20032;-47
2021/10/25 15:45:59;;;;;;;3.20;2.60;;;;;;;;;;5090335;28;20048;-47
2021/10/25 15:48:25;;;;;;;3.13;2.83;;;;;;;;;;5104689;28;20031;-47
2021/10/25 15:50:50;;;;;;;3.15;2.55;;;;;;;;;;5111955;28;20028;-47
2021/10/25 15:53:16;;;;;;;3.15;2.53;;;;;;;;;;5111776;28;20015;-48
2021/10/25 15:55:42;;;;;;;3.70;2.73;;;;;;;;;;5110738;28;20023;-50
2021/10/25 15:58:07;;;;;;;2.92;2.65;;;;;;;;;;5111084;28;20030;-51
2021/10/25 16:00:33;;;;;;;3.83;2.83;;;;;;;;;;5111738;28;20106;-52
2021/10/25 16:02:58;;;;;;;2.90;2.60;;;;;;;;;;5112140;28;20059;-52
2021/10/25 16:05:27;;;;;;;2.85;2.47;;;;;;;;;;5112105;28;20028;-49
2021/10/25 16:07:52;;;;;;;3.05;2.55;;;;;;;;;;5111313;28;20031;-50
2021/10/25 16:10:17;;;;;;;4.10;2.87;;;;;;;;;;5111230;28;20415;-49
2021/10/25 16:12:43;;;;;;;2.80;2.50;;;;;;;;;;5099305;28;20038;-49
2021/10/25 16:15:09;;;;;;;3.00;2.70;;;;;;;;;;5092104;28;20080;-49
2021/10/25 16:17:34;;;;;;;3.28;2.70;;;;;;;;;;5110261;28;20052;-49
2021/10/25 16:20:02;;;;;;;2.83;2.53;;;;;;;;;;5105019;28;20455;-50
2021/10/25 16:22:27;;;;;;;2.85;2.65;;;;;;;;;;5103840;28;20931;-49
2021/10/25 16:24:53;;;;;;;3.37;2.73;;;;;;;;;;5077448;28;20500;-50
2021/10/25 16:27:18;;;;;;;4.17;3.10;;;;;;;;;;5108938;28;20023;-50
2021/10/25 16:29:44;;;;;;;2.87;2.30;;;;;;;;;;5105271;28;20027;-52
2021/10/25 16:32:09;;;;;;;2.70;2.40;;;;;;;;;;5111366;28;20525;-53
2021/10/25 16:34:35;;;;;;;3.17;2.70;;;;;;;;;;5089695;28;20594;-54
2021/10/25 16:37:01;;;;;;;3.40;2.37;;;;;;;;;;5119482;28;20080;-54
2021/10/25 16:39:27;;;;;;;2.63;2.43;;;;;;;;;;5107843;28;20030;-52